sensor_id;sensor_type;location;lat;lon;timestamp;temperature;humidity
16060;DHT22;8134;49.552;7.632;2023-06-24T00:00:57;18.10;94.20
16060;DHT22;8134;49.552;7.632;2023-06-24T00:03:23;18.00;94.30
16060;DHT22;8134;49.552;7.632;2023-06-24T00:05:48;18.00;94.40
16060;DHT22;8134;49.552;7.632;2023-06-24T00:08:15;18.00;94.50
16060;DHT22;8134;49.552;7.632;2023-06-24T00:10:47;18.00;94.60
16060;DHT22;8134;49.552;7.632;2023-06-24T00:13:13;17.90;94.70
16060;DHT22;8134;49.552;7.632;2023-06-24T00:15:39;17.90;94.70
16060;DHT22;8134;49.552;7.632;2023-06-24T00:18:10;17.90;94.80
16060;DHT22;8134;49.552;7.632;2023-06-24T00:20:36;17.80;95.20
16060;DHT22;8134;49.552;7.632;2023-06-24T00:23:01;17.80;95.00
16060;DHT22;8134;49.552;7.632;2023-06-24T00:25:28;17.80;95.10
16060;DHT22;8134;49.552;7.632;2023-06-24T00:27:53;17.80;95.00
16060;DHT22;8134;49.552;7.632;2023-06-24T00:30:19;17.80;95.10
16060;DHT22;8134;49.552;7.632;2023-06-24T00:32:44;17.70;95.10
16060;DHT22;8134;49.552;7.632;2023-06-24T00:35:10;17.70;95.30
16060;DHT22;8134;49.552;7.632;2023-06-24T00:37:37;17.60;95.30
16060;DHT22;8134;49.552;7.632;2023-06-24T00:40:03;17.60;95.40
16060;DHT22;8134;49.552;7.632;2023-06-24T00:42:29;17.60;95.40
16060;DHT22;8134;49.552;7.632;2023-06-24T00:44:54;17.60;95.40
16060;DHT22;8134;49.552;7.632;2023-06-24T00:47:20;17.60;95.50
16060;DHT22;8134;49.552;7.632;2023-06-24T00:49:46;17.50;95.60
16060;DHT22;8134;49.552;7.632;2023-06-24T00:52:12;17.50;95.70
16060;DHT22;8134;49.552;7.632;2023-06-24T00:54:42;17.50;95.70
16060;DHT22;8134;49.552;7.632;2023-06-24T00:57:07;17.50;95.70
16060;DHT22;8134;49.552;7.632;2023-06-24T00:59:33;17.50;95.60
16060;DHT22;8134;49.552;7.632;2023-06-24T01:01:59;17.40;96.00
16060;DHT22;8134;49.552;7.632;2023-06-24T01:04:30;17.40;95.70
16060;DHT22;8134;49.552;7.632;2023-06-24T01:06:56;17.40;95.90
16060;DHT22;8134;49.552;7.632;2023-06-24T01:09:22;17.30;96.00
16060;DHT22;8134;49.552;7.632;2023-06-24T01:11:48;17.30;96.10
16060;DHT22;8134;49.552;7.632;2023-06-24T01:14:14;17.30;96.00
16060;DHT22;8134;49.552;7.632;2023-06-24T01:29:52;17.10;96.30
16060;DHT22;8134;49.552;7.632;2023-06-24T01:33:05;17.10;96.50
16060;DHT22;8134;49.552;7.632;2023-06-24T01:35:25;17.10;96.60
16060;DHT22;8134;49.552;7.632;2023-06-24T01:37:53;17.10;96.70
16060;DHT22;8134;49.552;7.632;2023-06-24T01:40:27;17.10;96.70
16060;DHT22;8134;49.552;7.632;2023-06-24T01:42:54;17.00;96.80
16060;DHT22;8134;49.552;7.632;2023-06-24T01:45:36;17.00;96.90
16060;DHT22;8134;49.552;7.632;2023-06-24T01:48:04;17.00;97.00
16060;DHT22;8134;49.552;7.632;2023-06-24T01:50:32;16.90;97.00
16060;DHT22;8134;49.552;7.632;2023-06-24T01:52:58;16.90;97.10
16060;DHT22;8134;49.552;7.632;2023-06-24T01:55:24;16.80;97.20
16060;DHT22;8134;49.552;7.632;2023-06-24T01:57:51;16.90;97.20
16060;DHT22;8134;49.552;7.632;2023-06-24T02:00:17;16.90;97.20
16060;DHT22;8134;49.552;7.632;2023-06-24T02:02:43;16.90;97.10
16060;DHT22;8134;49.552;7.632;2023-06-24T02:05:09;16.80;97.30
16060;DHT22;8134;49.552;7.632;2023-06-24T02:07:35;16.80;97.50
16060;DHT22;8134;49.552;7.632;2023-06-24T02:10:01;16.70;97.60
16060;DHT22;8134;49.552;7.632;2023-06-24T02:12:28;16.80;97.60
16060;DHT22;8134;49.552;7.632;2023-06-24T02:14:54;16.80;97.70
16060;DHT22;8134;49.552;7.632;2023-06-24T02:17:20;16.80;97.70
16060;DHT22;8134;49.552;7.632;2023-06-24T02:19:46;16.80;97.80
16060;DHT22;8134;49.552;7.632;2023-06-24T02:22:13;16.90;97.70
16060;DHT22;8134;49.552;7.632;2023-06-24T02:24:38;16.80;97.50
16060;DHT22;8134;49.552;7.632;2023-06-24T02:27:06;16.80;97.50
16060;DHT22;8134;49.552;7.632;2023-06-24T02:29:32;16.80;97.50
16060;DHT22;8134;49.552;7.632;2023-06-24T02:31:58;16.70;97.60
16060;DHT22;8134;49.552;7.632;2023-06-24T02:34:24;16.70;97.60
16060;DHT22;8134;49.552;7.632;2023-06-24T02:36:49;16.70;97.70
16060;DHT22;8134;49.552;7.632;2023-06-24T02:39:15;16.60;97.80
16060;DHT22;8134;49.552;7.632;2023-06-24T02:41:41;16.60;97.90
16060;DHT22;8134;49.552;7.632;2023-06-24T02:44:07;16.60;97.90
16060;DHT22;8134;49.552;7.632;2023-06-24T02:46:33;16.60;97.90
16060;DHT22;8134;49.552;7.632;2023-06-24T02:48:59;16.60;98.00
16060;DHT22;8134;49.552;7.632;2023-06-24T02:51:25;16.60;97.90
16060;DHT22;8134;49.552;7.632;2023-06-24T02:53:51;16.60;98.00
16060;DHT22;8134;49.552;7.632;2023-06-24T02:56:17;16.50;98.00
16060;DHT22;8134;49.552;7.632;2023-06-24T02:58:46;16.50;98.10
16060;DHT22;8134;49.552;7.632;2023-06-24T03:01:12;16.40;98.20
16060;DHT22;8134;49.552;7.632;2023-06-24T03:03:37;16.50;98.40
16060;DHT22;8134;49.552;7.632;2023-06-24T03:06:03;16.40;98.40
16060;DHT22;8134;49.552;7.632;2023-06-24T03:08:29;16.40;98.40
16060;DHT22;8134;49.552;7.632;2023-06-24T03:10:54;16.40;98.90
16060;DHT22;8134;49.552;7.632;2023-06-24T03:13:21;16.40;98.50
16060;DHT22;8134;49.552;7.632;2023-06-24T03:15:46;16.40;98.50
16060;DHT22;8134;49.552;7.632;2023-06-24T03:18:12;16.40;98.40
16060;DHT22;8134;49.552;7.632;2023-06-24T03:20:37;16.40;98.30
16060;DHT22;8134;49.552;7.632;2023-06-24T03:23:06;16.30;98.30
16060;DHT22;8134;49.552;7.632;2023-06-24T03:25:32;16.30;98.50
16060;DHT22;8134;49.552;7.632;2023-06-24T03:27:57;16.20;98.60
16060;DHT22;8134;49.552;7.632;2023-06-24T03:30:24;16.20;99.00
16060;DHT22;8134;49.552;7.632;2023-06-24T03:32:49;16.20;98.80
16060;DHT22;8134;49.552;7.632;2023-06-24T03:35:15;16.20;98.90
16060;DHT22;8134;49.552;7.632;2023-06-24T03:37:40;16.20;98.90
16060;DHT22;8134;49.552;7.632;2023-06-24T03:40:06;16.20;99.00
16060;DHT22;8134;49.552;7.632;2023-06-24T03:42:33;16.20;99.10
16060;DHT22;8134;49.552;7.632;2023-06-24T03:44:58;16.20;99.20
16060;DHT22;8134;49.552;7.632;2023-06-24T03:47:24;16.20;99.20
16060;DHT22;8134;49.552;7.632;2023-06-24T03:49:49;16.20;99.30
16060;DHT22;8134;49.552;7.632;2023-06-24T03:52:16;16.20;99.20
16060;DHT22;8134;49.552;7.632;2023-06-24T03:54:42;16.20;99.30
16060;DHT22;8134;49.552;7.632;2023-06-24T03:57:07;16.20;99.50
16060;DHT22;8134;49.552;7.632;2023-06-24T03:59:34;16.10;99.40
16060;DHT22;8134;49.552;7.632;2023-06-24T04:01:59;16.20;99.60
16060;DHT22;8134;49.552;7.632;2023-06-24T04:04:25;16.20;99.70
16060;DHT22;8134;49.552;7.632;2023-06-24T04:06:51;16.10;99.80
16060;DHT22;8134;49.552;7.632;2023-06-24T04:09:16;16.20;99.80
16060;DHT22;8134;49.552;7.632;2023-06-24T04:11:42;16.20;99.80
16060;DHT22;8134;49.552;7.632;2023-06-24T04:14:08;16.20;99.80
16060;DHT22;8134;49.552;7.632;2023-06-24T04:16:34;16.20;99.90
16060;DHT22;8134;49.552;7.632;2023-06-24T04:19:00;16.20;99.90
16060;DHT22;8134;49.552;7.632;2023-06-24T04:21:26;16.10;99.90
16060;DHT22;8134;49.552;7.632;2023-06-24T04:23:52;16.20;99.90
16060;DHT22;8134;49.552;7.632;2023-06-24T04:26:18;16.10;99.90
16060;DHT22;8134;49.552;7.632;2023-06-24T04:28:43;16.10;99.90
16060;DHT22;8134;49.552;7.632;2023-06-24T04:31:08;16.10;99.90
16060;DHT22;8134;49.552;7.632;2023-06-24T04:33:34;16.10;99.90
16060;DHT22;8134;49.552;7.632;2023-06-24T04:36:00;16.20;99.90
16060;DHT22;8134;49.552;7.632;2023-06-24T04:38:25;16.20;99.90
16060;DHT22;8134;49.552;7.632;2023-06-24T04:40:51;16.20;99.90
16060;DHT22;8134;49.552;7.632;2023-06-24T04:43:16;16.20;99.90
16060;DHT22;8134;49.552;7.632;2023-06-24T04:45:42;16.20;99.90
16060;DHT22;8134;49.552;7.632;2023-06-24T04:48:07;16.20;99.90
16060;DHT22;8134;49.552;7.632;2023-06-24T04:50:33;16.30;99.90
16060;DHT22;8134;49.552;7.632;2023-06-24T04:52:58;16.30;99.90
16060;DHT22;8134;49.552;7.632;2023-06-24T04:55:27;16.40;99.90
16060;DHT22;8134;49.552;7.632;2023-06-24T04:57:52;16.40;99.90
16060;DHT22;8134;49.552;7.632;2023-06-24T05:00:18;16.40;99.90
16060;DHT22;8134;49.552;7.632;2023-06-24T05:02:43;16.40;99.90
16060;DHT22;8134;49.552;7.632;2023-06-24T05:05:09;16.40;99.90
16060;DHT22;8134;49.552;7.632;2023-06-24T05:07:35;16.40;99.90
16060;DHT22;8134;49.552;7.632;2023-06-24T05:10:00;16.40;99.90
16060;DHT22;8134;49.552;7.632;2023-06-24T05:12:26;16.40;99.90
16060;DHT22;8134;49.552;7.632;2023-06-24T05:14:51;16.40;99.90
16060;DHT22;8134;49.552;7.632;2023-06-24T05:17:18;16.40;99.90
16060;DHT22;8134;49.552;7.632;2023-06-24T05:19:43;16.40;99.90
16060;DHT22;8134;49.552;7.632;2023-06-24T05:22:09;16.50;99.90
16060;DHT22;8134;49.552;7.632;2023-06-24T05:24:34;16.50;99.90
16060;DHT22;8134;49.552;7.632;2023-06-24T05:27:03;16.50;99.90
16060;DHT22;8134;49.552;7.632;2023-06-24T05:29:29;16.50;99.90
16060;DHT22;8134;49.552;7.632;2023-06-24T05:31:55;16.60;99.90
16060;DHT22;8134;49.552;7.632;2023-06-24T05:34:20;16.60;99.90
16060;DHT22;8134;49.552;7.632;2023-06-24T05:36:46;16.60;99.90
16060;DHT22;8134;49.552;7.632;2023-06-24T05:39:12;16.70;99.90
16060;DHT22;8134;49.552;7.632;2023-06-24T05:41:38;16.70;99.90
16060;DHT22;8134;49.552;7.632;2023-06-24T05:44:04;16.70;99.90
16060;DHT22;8134;49.552;7.632;2023-06-24T05:46:30;16.80;99.90
16060;DHT22;8134;49.552;7.632;2023-06-24T05:48:56;16.80;99.90
16060;DHT22;8134;49.552;7.632;2023-06-24T05:51:21;16.90;99.90
16060;DHT22;8134;49.552;7.632;2023-06-24T05:53:46;17.20;99.90
16060;DHT22;8134;49.552;7.632;2023-06-24T05:56:12;17.80;99.90
16060;DHT22;8134;49.552;7.632;2023-06-24T05:58:37;18.20;99.90
16060;DHT22;8134;49.552;7.632;2023-06-24T06:01:03;18.50;99.90
16060;DHT22;8134;49.552;7.632;2023-06-24T06:03:29;18.60;99.90
16060;DHT22;8134;49.552;7.632;2023-06-24T06:05:55;18.60;99.90
16060;DHT22;8134;49.552;7.632;2023-06-24T06:08:20;18.50;99.90
16060;DHT22;8134;49.552;7.632;2023-06-24T06:10:46;18.40;99.90
16060;DHT22;8134;49.552;7.632;2023-06-24T06:13:11;18.30;99.90
16060;DHT22;8134;49.552;7.632;2023-06-24T06:15:37;18.30;99.90
16060;DHT22;8134;49.552;7.632;2023-06-24T06:18:02;18.30;99.90
16060;DHT22;8134;49.552;7.632;2023-06-24T06:20:28;18.30;99.90
16060;DHT22;8134;49.552;7.632;2023-06-24T06:22:53;18.20;99.90
16060;DHT22;8134;49.552;7.632;2023-06-24T06:25:19;18.20;99.90
16060;DHT22;8134;49.552;7.632;2023-06-24T06:27:45;18.20;99.90
16060;DHT22;8134;49.552;7.632;2023-06-24T06:30:10;18.30;99.90
16060;DHT22;8134;49.552;7.632;2023-06-24T06:32:36;18.30;99.90
16060;DHT22;8134;49.552;7.632;2023-06-24T06:35:02;18.30;99.90
16060;DHT22;8134;49.552;7.632;2023-06-24T06:37:27;18.40;99.90
16060;DHT22;8134;49.552;7.632;2023-06-24T06:39:53;18.40;99.90
16060;DHT22;8134;49.552;7.632;2023-06-24T06:42:18;18.40;99.90
16060;DHT22;8134;49.552;7.632;2023-06-24T06:44:44;18.40;99.90
16060;DHT22;8134;49.552;7.632;2023-06-24T06:47:10;18.40;99.90
16060;DHT22;8134;49.552;7.632;2023-06-24T06:49:36;18.50;99.90
16060;DHT22;8134;49.552;7.632;2023-06-24T06:52:01;18.50;99.90
16060;DHT22;8134;49.552;7.632;2023-06-24T06:54:27;18.50;99.90
16060;DHT22;8134;49.552;7.632;2023-06-24T06:56:52;18.60;99.90
16060;DHT22;8134;49.552;7.632;2023-06-24T06:59:18;18.60;99.90
16060;DHT22;8134;49.552;7.632;2023-06-24T07:01:44;18.60;99.90
16060;DHT22;8134;49.552;7.632;2023-06-24T07:04:09;18.70;99.90
16060;DHT22;8134;49.552;7.632;2023-06-24T07:06:35;18.80;99.90
16060;DHT22;8134;49.552;7.632;2023-06-24T07:09:00;18.90;99.90
16060;DHT22;8134;49.552;7.632;2023-06-24T07:11:26;19.00;99.90
16060;DHT22;8134;49.552;7.632;2023-06-24T07:13:51;19.00;99.90
16060;DHT22;8134;49.552;7.632;2023-06-24T07:16:17;19.10;99.90
16060;DHT22;8134;49.552;7.632;2023-06-24T07:18:43;19.10;99.90
16060;DHT22;8134;49.552;7.632;2023-06-24T07:21:08;19.20;99.90
16060;DHT22;8134;49.552;7.632;2023-06-24T07:23:34;19.20;99.90
16060;DHT22;8134;49.552;7.632;2023-06-24T07:25:59;19.30;99.90
16060;DHT22;8134;49.552;7.632;2023-06-24T07:28:25;19.40;99.90
16060;DHT22;8134;49.552;7.632;2023-06-24T07:30:51;19.50;99.90
16060;DHT22;8134;49.552;7.632;2023-06-24T07:33:16;19.60;99.90
16060;DHT22;8134;49.552;7.632;2023-06-24T07:35:42;19.70;99.90
16060;DHT22;8134;49.552;7.632;2023-06-24T07:38:10;19.80;99.90
16060;DHT22;8134;49.552;7.632;2023-06-24T07:40:36;19.80;99.90
16060;DHT22;8134;49.552;7.632;2023-06-24T07:43:02;19.90;99.90
16060;DHT22;8134;49.552;7.632;2023-06-24T07:45:29;20.00;99.90
16060;DHT22;8134;49.552;7.632;2023-06-24T07:47:55;20.10;99.90
16060;DHT22;8134;49.552;7.632;2023-06-24T07:50:21;20.20;99.90
16060;DHT22;8134;49.552;7.632;2023-06-24T07:52:48;20.30;99.90
16060;DHT22;8134;49.552;7.632;2023-06-24T07:55:17;20.40;99.90
16060;DHT22;8134;49.552;7.632;2023-06-24T07:57:46;20.50;99.90
16060;DHT22;8134;49.552;7.632;2023-06-24T08:00:12;20.60;99.90
16060;DHT22;8134;49.552;7.632;2023-06-24T08:02:38;20.70;99.90
16060;DHT22;8134;49.552;7.632;2023-06-24T08:05:04;20.80;99.90
16060;DHT22;8134;49.552;7.632;2023-06-24T08:07:37;20.90;99.90
16060;DHT22;8134;49.552;7.632;2023-06-24T08:10:07;21.10;99.90
16060;DHT22;8134;49.552;7.632;2023-06-24T08:12:33;21.20;99.90
16060;DHT22;8134;49.552;7.632;2023-06-24T08:15:16;21.30;99.90
16060;DHT22;8134;49.552;7.632;2023-06-24T08:17:42;21.40;99.90
16060;DHT22;8134;49.552;7.632;2023-06-24T08:20:07;21.50;99.90
16060;DHT22;8134;49.552;7.632;2023-06-24T08:22:42;21.70;99.60
16060;DHT22;8134;49.552;7.632;2023-06-24T08:25:09;21.80;99.70
16060;DHT22;8134;49.552;7.632;2023-06-24T08:27:36;21.90;98.40
16060;DHT22;8134;49.552;7.632;2023-06-24T08:30:05;22.00;97.60
16060;DHT22;8134;49.552;7.632;2023-06-24T08:32:34;22.10;98.90
16060;DHT22;8134;49.552;7.632;2023-06-24T08:34:59;22.30;97.20
16060;DHT22;8134;49.552;7.632;2023-06-24T08:37:25;22.40;94.70
16060;DHT22;8134;49.552;7.632;2023-06-24T08:39:50;22.40;95.90
16060;DHT22;8134;49.552;7.632;2023-06-24T08:42:16;22.50;95.90
16060;DHT22;8134;49.552;7.632;2023-06-24T08:44:41;22.50;94.80
16060;DHT22;8134;49.552;7.632;2023-06-24T08:47:08;22.60;95.10
16060;DHT22;8134;49.552;7.632;2023-06-24T08:49:37;22.70;94.00
16060;DHT22;8134;49.552;7.632;2023-06-24T08:52:08;22.70;94.30
16060;DHT22;8134;49.552;7.632;2023-06-24T08:54:35;22.90;93.70
16060;DHT22;8134;49.552;7.632;2023-06-24T08:57:04;22.90;92.70
16060;DHT22;8134;49.552;7.632;2023-06-24T08:59:34;23.00;93.00
16060;DHT22;8134;49.552;7.632;2023-06-24T09:02:00;23.10;92.20
16060;DHT22;8134;49.552;7.632;2023-06-24T09:04:28;23.10;92.40
16060;DHT22;8134;49.552;7.632;2023-06-24T09:06:54;23.20;92.20
16060;DHT22;8134;49.552;7.632;2023-06-24T09:09:21;23.20;91.10
16060;DHT22;8134;49.552;7.632;2023-06-24T09:11:50;23.30;90.40
16060;DHT22;8134;49.552;7.632;2023-06-24T09:14:17;23.40;90.30
16060;DHT22;8134;49.552;7.632;2023-06-24T09:16:55;23.50;89.40
16060;DHT22;8134;49.552;7.632;2023-06-24T09:19:21;23.60;88.10
16060;DHT22;8134;49.552;7.632;2023-06-24T09:21:47;23.60;86.60
16060;DHT22;8134;49.552;7.632;2023-06-24T09:24:13;23.60;87.50
16060;DHT22;8134;49.552;7.632;2023-06-24T09:26:38;23.70;88.30
16060;DHT22;8134;49.552;7.632;2023-06-24T09:29:07;23.70;90.00
16060;DHT22;8134;49.552;7.632;2023-06-24T09:31:52;23.80;89.10
16060;DHT22;8134;49.552;7.632;2023-06-24T09:34:54;23.80;87.60
16060;DHT22;8134;49.552;7.632;2023-06-24T09:37:22;23.90;87.60
16060;DHT22;8134;49.552;7.632;2023-06-24T09:43:09;23.90;85.90
16060;DHT22;8134;49.552;7.632;2023-06-24T09:45:45;24.00;86.60
16060;DHT22;8134;49.552;7.632;2023-06-24T09:48:14;24.00;86.30
16060;DHT22;8134;49.552;7.632;2023-06-24T09:50:45;24.10;85.20
16060;DHT22;8134;49.552;7.632;2023-06-24T09:53:21;24.10;86.50
16060;DHT22;8134;49.552;7.632;2023-06-24T09:55:47;24.20;86.90
16060;DHT22;8134;49.552;7.632;2023-06-24T10:01:41;24.40;84.30
16060;DHT22;8134;49.552;7.632;2023-06-24T10:04:09;24.50;85.80
16060;DHT22;8134;49.552;7.632;2023-06-24T10:06:41;24.60;85.10
16060;DHT22;8134;49.552;7.632;2023-06-24T10:09:43;24.60;85.20
16060;DHT22;8134;49.552;7.632;2023-06-24T10:15:33;24.80;84.50
16060;DHT22;8134;49.552;7.632;2023-06-24T10:18:03;24.90;83.80
16060;DHT22;8134;49.552;7.632;2023-06-24T10:20:29;24.90;83.90
16060;DHT22;8134;49.552;7.632;2023-06-24T10:22:54;25.00;83.70
16060;DHT22;8134;49.552;7.632;2023-06-24T10:25:20;25.10;80.40
16060;DHT22;8134;49.552;7.632;2023-06-24T10:27:57;25.10;81.40
16060;DHT22;8134;49.552;7.632;2023-06-24T10:30:55;25.00;80.20
16060;DHT22;8134;49.552;7.632;2023-06-24T10:33:59;25.10;80.60
16060;DHT22;8134;49.552;7.632;2023-06-24T10:36:42;25.10;80.20
16060;DHT22;8134;49.552;7.632;2023-06-24T10:42:24;25.10;80.70
16060;DHT22;8134;49.552;7.632;2023-06-24T10:44:51;25.10;82.60
16060;DHT22;8134;49.552;7.632;2023-06-24T10:47:17;25.10;83.20
16060;DHT22;8134;49.552;7.632;2023-06-24T10:49:42;25.10;81.80
16060;DHT22;8134;49.552;7.632;2023-06-24T10:52:11;25.00;80.90
16060;DHT22;8134;49.552;7.632;2023-06-24T10:54:37;25.00;81.40
16060;DHT22;8134;49.552;7.632;2023-06-24T10:57:10;25.00;80.00
16060;DHT22;8134;49.552;7.632;2023-06-24T10:59:40;25.00;79.30
16060;DHT22;8134;49.552;7.632;2023-06-24T11:02:09;25.00;80.10
16060;DHT22;8134;49.552;7.632;2023-06-24T11:04:48;25.00;79.70
16060;DHT22;8134;49.552;7.632;2023-06-24T11:07:14;25.00;79.00
16060;DHT22;8134;49.552;7.632;2023-06-24T11:10:06;25.10;79.70
16060;DHT22;8134;49.552;7.632;2023-06-24T11:12:33;25.10;78.60
16060;DHT22;8134;49.552;7.632;2023-06-24T11:15:00;25.20;80.50
16060;DHT22;8134;49.552;7.632;2023-06-24T11:17:26;25.30;79.60
16060;DHT22;8134;49.552;7.632;2023-06-24T11:19:55;25.40;79.10
16060;DHT22;8134;49.552;7.632;2023-06-24T11:22:25;25.60;79.00
16060;DHT22;8134;49.552;7.632;2023-06-24T11:25:18;25.80;78.10
16060;DHT22;8134;49.552;7.632;2023-06-24T11:27:45;26.00;78.60
16060;DHT22;8134;49.552;7.632;2023-06-24T11:30:33;26.20;77.30
16060;DHT22;8134;49.552;7.632;2023-06-24T11:33:33;26.40;78.50
16060;DHT22;8134;49.552;7.632;2023-06-24T11:36:38;26.60;79.60
16060;DHT22;8134;49.552;7.632;2023-06-24T11:39:03;26.60;75.20
16060;DHT22;8134;49.552;7.632;2023-06-24T11:41:53;26.70;76.30
16060;DHT22;8134;49.552;7.632;2023-06-24T11:44:29;26.80;75.50
16060;DHT22;8134;49.552;7.632;2023-06-24T11:47:03;26.80;76.50
16060;DHT22;8134;49.552;7.632;2023-06-24T11:49:29;26.90;75.50
16060;DHT22;8134;49.552;7.632;2023-06-24T11:51:57;26.90;71.90
16060;DHT22;8134;49.552;7.632;2023-06-24T11:54:40;26.90;72.60
16060;DHT22;8134;49.552;7.632;2023-06-24T12:00:24;26.90;74.00
16060;DHT22;8134;49.552;7.632;2023-06-24T12:03:00;26.80;74.60
16060;DHT22;8134;49.552;7.632;2023-06-24T12:05:41;26.90;75.50
16060;DHT22;8134;49.552;7.632;2023-06-24T12:11:12;27.10;74.20
16060;DHT22;8134;49.552;7.632;2023-06-24T12:13:38;27.30;74.40
16060;DHT22;8134;49.552;7.632;2023-06-24T12:16:09;27.40;76.00
16060;DHT22;8134;49.552;7.632;2023-06-24T12:18:41;27.50;76.30
16060;DHT22;8134;49.552;7.632;2023-06-24T12:21:07;27.50;71.00
16060;DHT22;8134;49.552;7.632;2023-06-24T12:23:59;27.60;74.40
16060;DHT22;8134;49.552;7.632;2023-06-24T12:26:31;27.60;72.50
16060;DHT22;8134;49.552;7.632;2023-06-24T12:29:17;27.70;72.60
16060;DHT22;8134;49.552;7.632;2023-06-24T12:31:43;27.70;72.40
16060;DHT22;8134;49.552;7.632;2023-06-24T12:34:16;27.80;72.00
16060;DHT22;8134;49.552;7.632;2023-06-24T12:36:42;27.80;72.90
16060;DHT22;8134;49.552;7.632;2023-06-24T12:39:07;27.90;72.70
16060;DHT22;8134;49.552;7.632;2023-06-24T12:41:33;27.90;71.40
16060;DHT22;8134;49.552;7.632;2023-06-24T12:43:58;28.00;71.00
16060;DHT22;8134;49.552;7.632;2023-06-24T12:46:24;28.10;71.60
16060;DHT22;8134;49.552;7.632;2023-06-24T12:48:49;28.10;70.70
16060;DHT22;8134;49.552;7.632;2023-06-24T12:57:30;28.00;69.20
16060;DHT22;8134;49.552;7.632;2023-06-24T12:59:55;28.10;71.20
16060;DHT22;8134;49.552;7.632;2023-06-24T13:02:42;28.10;71.20
16060;DHT22;8134;49.552;7.632;2023-06-24T13:05:36;28.20;69.50
16060;DHT22;8134;49.552;7.632;2023-06-24T13:08:03;28.20;70.50
16060;DHT22;8134;49.552;7.632;2023-06-24T13:10:34;28.10;70.00
16060;DHT22;8134;49.552;7.632;2023-06-24T13:13:01;28.00;69.40
16060;DHT22;8134;49.552;7.632;2023-06-24T13:15:35;27.90;70.40
16060;DHT22;8134;49.552;7.632;2023-06-24T13:18:01;27.70;69.50
16060;DHT22;8134;49.552;7.632;2023-06-24T13:20:32;27.80;70.10
16060;DHT22;8134;49.552;7.632;2023-06-24T13:22:58;28.00;69.90
16060;DHT22;8134;49.552;7.632;2023-06-24T13:25:25;28.10;69.70
16060;DHT22;8134;49.552;7.632;2023-06-24T13:27:50;28.20;66.50
16060;DHT22;8134;49.552;7.632;2023-06-24T13:30:16;28.30;68.30
16060;DHT22;8134;49.552;7.632;2023-06-24T13:32:43;28.40;69.10
16060;DHT22;8134;49.552;7.632;2023-06-24T13:35:10;28.60;68.70
16060;DHT22;8134;49.552;7.632;2023-06-24T13:37:37;28.70;67.90
16060;DHT22;8134;49.552;7.632;2023-06-24T13:40:04;28.80;68.60
16060;DHT22;8134;49.552;7.632;2023-06-24T13:42:31;28.90;68.70
16060;DHT22;8134;49.552;7.632;2023-06-24T13:45:00;28.90;66.60
16060;DHT22;8134;49.552;7.632;2023-06-24T13:47:49;29.00;66.00
16060;DHT22;8134;49.552;7.632;2023-06-24T13:50:15;29.10;67.90
16060;DHT22;8134;49.552;7.632;2023-06-24T13:52:40;29.10;63.60
16060;DHT22;8134;49.552;7.632;2023-06-24T13:55:07;29.00;65.30
16060;DHT22;8134;49.552;7.632;2023-06-24T13:57:33;28.80;63.70
16060;DHT22;8134;49.552;7.632;2023-06-24T13:59:59;28.50;63.40
16060;DHT22;8134;49.552;7.632;2023-06-24T14:02:25;28.30;64.00
16060;DHT22;8134;49.552;7.632;2023-06-24T14:04:51;28.10;64.50
16060;DHT22;8134;49.552;7.632;2023-06-24T14:07:17;28.00;64.20
16060;DHT22;8134;49.552;7.632;2023-06-24T14:09:42;28.00;64.50
16060;DHT22;8134;49.552;7.632;2023-06-24T14:12:08;28.10;64.30
16060;DHT22;8134;49.552;7.632;2023-06-24T14:14:34;28.40;65.50
16060;DHT22;8134;49.552;7.632;2023-06-24T14:17:01;28.60;64.50
16060;DHT22;8134;49.552;7.632;2023-06-24T14:19:26;28.70;65.40
16060;DHT22;8134;49.552;7.632;2023-06-24T14:21:53;28.80;64.40
16060;DHT22;8134;49.552;7.632;2023-06-24T14:24:20;28.80;64.30
16060;DHT22;8134;49.552;7.632;2023-06-24T14:26:46;28.70;63.00
16060;DHT22;8134;49.552;7.632;2023-06-24T14:29:14;28.50;62.70
16060;DHT22;8134;49.552;7.632;2023-06-24T14:31:41;28.40;62.70
16060;DHT22;8134;49.552;7.632;2023-06-24T14:34:15;28.30;62.40
16060;DHT22;8134;49.552;7.632;2023-06-24T14:36:40;28.30;62.10
16060;DHT22;8134;49.552;7.632;2023-06-24T14:39:06;28.50;62.90
16060;DHT22;8134;49.552;7.632;2023-06-24T14:41:43;28.50;61.60
16060;DHT22;8134;49.552;7.632;2023-06-24T14:44:13;28.80;62.30
16060;DHT22;8134;49.552;7.632;2023-06-24T18:58:57;24.00;92.10
16060;DHT22;8134;49.552;7.632;2023-06-24T19:01:22;23.80;92.60
16060;DHT22;8134;49.552;7.632;2023-06-24T19:03:48;23.80;92.70
16060;DHT22;8134;49.552;7.632;2023-06-24T19:06:13;23.80;93.20
16060;DHT22;8134;49.552;7.632;2023-06-24T19:08:39;23.80;92.70
16060;DHT22;8134;49.552;7.632;2023-06-24T19:11:05;23.90;92.80
16060;DHT22;8134;49.552;7.632;2023-06-24T19:13:31;23.90;92.30
16060;DHT22;8134;49.552;7.632;2023-06-24T19:15:56;23.90;92.40
16060;DHT22;8134;49.552;7.632;2023-06-24T19:18:22;23.90;92.10
16060;DHT22;8134;49.552;7.632;2023-06-24T19:20:47;23.90;92.00
16060;DHT22;8134;49.552;7.632;2023-06-24T19:23:13;23.80;91.80
16060;DHT22;8134;49.552;7.632;2023-06-24T19:25:39;23.80;91.90
16060;DHT22;8134;49.552;7.632;2023-06-24T19:28:04;23.70;91.90
16060;DHT22;8134;49.552;7.632;2023-06-24T19:30:30;23.60;91.70
16060;DHT22;8134;49.552;7.632;2023-06-24T19:32:55;23.60;91.70
16060;DHT22;8134;49.552;7.632;2023-06-24T19:35:21;23.50;91.80
16060;DHT22;8134;49.552;7.632;2023-06-24T19:37:46;23.40;91.90
16060;DHT22;8134;49.552;7.632;2023-06-24T19:40:12;23.40;91.80
16060;DHT22;8134;49.552;7.632;2023-06-24T19:42:38;23.30;91.70
16060;DHT22;8134;49.552;7.632;2023-06-24T19:45:04;23.20;91.60
16060;DHT22;8134;49.552;7.632;2023-06-24T19:47:30;23.10;91.50
16060;DHT22;8134;49.552;7.632;2023-06-24T19:49:56;23.00;91.60
16060;DHT22;8134;49.552;7.632;2023-06-24T19:52:23;22.90;91.50
16060;DHT22;8134;49.552;7.632;2023-06-24T19:54:49;22.80;91.60
16060;DHT22;8134;49.552;7.632;2023-06-24T19:57:16;22.80;91.60
16060;DHT22;8134;49.552;7.632;2023-06-24T19:59:42;22.70;91.60
16060;DHT22;8134;49.552;7.632;2023-06-24T20:02:08;22.60;91.60
16060;DHT22;8134;49.552;7.632;2023-06-24T20:04:33;22.50;91.70
16060;DHT22;8134;49.552;7.632;2023-06-24T20:06:59;22.40;91.60
16060;DHT22;8134;49.552;7.632;2023-06-24T20:09:25;22.40;91.70
16060;DHT22;8134;49.552;7.632;2023-06-24T20:11:50;22.30;91.60
16060;DHT22;8134;49.552;7.632;2023-06-24T20:14:16;22.20;91.70
16060;DHT22;8134;49.552;7.632;2023-06-24T20:16:42;22.20;91.70
16060;DHT22;8134;49.552;7.632;2023-06-24T20:19:08;22.10;91.70
16060;DHT22;8134;49.552;7.632;2023-06-24T20:21:33;22.00;92.00
16060;DHT22;8134;49.552;7.632;2023-06-24T20:23:59;22.00;92.00
16060;DHT22;8134;49.552;7.632;2023-06-24T20:26:25;21.90;91.90
16060;DHT22;8134;49.552;7.632;2023-06-24T20:28:50;21.80;91.80
16060;DHT22;8134;49.552;7.632;2023-06-24T20:31:16;21.80;91.90
16060;DHT22;8134;49.552;7.632;2023-06-24T20:33:41;21.70;92.10
16060;DHT22;8134;49.552;7.632;2023-06-24T20:36:07;21.60;92.10
16060;DHT22;8134;49.552;7.632;2023-06-24T20:38:33;21.60;92.50
16060;DHT22;8134;49.552;7.632;2023-06-24T20:40:59;21.50;92.20